sensor_id;sensor_type;location;lat;lon;timestamp;P1;durP1;ratioP1;P2;durP2;ratioP2
20177;SDS011;10248;51.218;20.866;2022-08-19T00:01:36;173.73;;;168.18;;
20177;SDS011;10248;51.218;20.866;2022-08-19T00:04:06;208.98;;;202.40;;
20177;SDS011;10248;51.218;20.866;2022-08-19T00:06:36;165.38;;;160.25;;
20177;SDS011;10248;51.218;20.866;2022-08-19T00:09:05;156.88;;;152.02;;
20177;SDS011;10248;51.218;20.866;2022-08-19T00:11:36;156.13;;;151.35;;
20177;SDS011;10248;51.218;20.866;2022-08-19T00:14:04;146.05;;;141.55;;
20177;SDS011;10248;51.218;20.866;2022-08-19T00:16:33;141.85;;;137.50;;
20177;SDS011;10248;51.218;20.866;2022-08-19T00:19:01;157.30;;;152.43;;
20177;SDS011;10248;51.218;20.866;2022-08-19T00:21:29;169.77;;;164.50;;
20177;SDS011;10248;51.218;20.866;2022-08-19T00:23:57;149.43;;;144.77;;
20177;SDS011;10248;51.218;20.866;2022-08-19T00:26:26;143.32;;;138.88;;
20177;SDS011;10248;51.218;20.866;2022-08-19T00:28:56;166.07;;;160.93;;
20177;SDS011;10248;51.218;20.866;2022-08-19T00:31:24;167.02;;;161.77;;
20177;SDS011;10248;51.218;20.866;2022-08-19T00:33:54;197.88;;;191.70;;
20177;SDS011;10248;51.218;20.866;2022-08-19T00:36:21;175.07;;;169.65;;
20177;SDS011;10248;51.218;20.866;2022-08-19T00:38:49;173.55;;;168.20;;
20177;SDS011;10248;51.218;20.866;2022-08-19T00:41:18;163.48;;;158.45;;
20177;SDS011;10248;51.218;20.866;2022-08-19T00:43:57;157.30;;;152.45;;
20177;SDS011;10248;51.218;20.866;2022-08-19T00:46:26;157.35;;;152.52;;
20177;SDS011;10248;51.218;20.866;2022-08-19T00:48:54;284.42;;;275.55;;
20177;SDS011;10248;51.218;20.866;2022-08-19T00:51:23;216.68;;;210.05;;
20177;SDS011;10248;51.218;20.866;2022-08-19T00:53:52;248.02;;;240.40;;
20177;SDS011;10248;51.218;20.866;2022-08-19T00:56:21;206.15;;;199.88;;
20177;SDS011;10248;51.218;20.866;2022-08-19T00:58:49;272.63;;;264.30;;
20177;SDS011;10248;51.218;20.866;2022-08-19T01:01:19;181.60;;;176.00;;
20177;SDS011;10248;51.218;20.866;2022-08-19T01:03:46;189.65;;;183.80;;
20177;SDS011;10248;51.218;20.866;2022-08-19T01:06:23;188.85;;;183.02;;
20177;SDS011;10248;51.218;20.866;2022-08-19T01:08:52;194.23;;;188.20;;
20177;SDS011;10248;51.218;20.866;2022-08-19T01:11:20;210.07;;;203.63;;
20177;SDS011;10248;51.218;20.866;2022-08-19T01:13:48;223.95;;;217.07;;
20177;SDS011;10248;51.218;20.866;2022-08-19T01:16:19;202.15;;;195.98;;
20177;SDS011;10248;51.218;20.866;2022-08-19T01:18:49;211.38;;;204.70;;
20177;SDS011;10248;51.218;20.866;2022-08-19T01:21:18;187.38;;;181.45;;
20177;SDS011;10248;51.218;20.866;2022-08-19T01:23:50;231.45;;;224.13;;
20177;SDS011;10248;51.218;20.866;2022-08-19T01:26:20;206.48;;;199.98;;
20177;SDS011;10248;51.218;20.866;2022-08-19T01:28:50;258.20;;;249.93;;
20177;SDS011;10248;51.218;20.866;2022-08-19T01:31:19;221.23;;;214.30;;
20177;SDS011;10248;51.218;20.866;2022-08-19T01:33:54;273.23;;;264.48;;
20177;SDS011;10248;51.218;20.866;2022-08-19T01:36:24;228.70;;;221.50;;
20177;SDS011;10248;51.218;20.866;2022-08-19T01:38:55;276.52;;;267.45;;
20177;SDS011;10248;51.218;20.866;2022-08-19T01:41:25;258.30;;;250.15;;
20177;SDS011;10248;51.218;20.866;2022-08-19T01:43:53;246.35;;;238.60;;
20177;SDS011;10248;51.218;20.866;2022-08-19T01:46:42;1999.90;;;999.90;;
20177;SDS011;10248;51.218;20.866;2022-08-19T01:49:10;1999.90;;;999.90;;
20177;SDS011;10248;51.218;20.866;2022-08-19T01:51:38;1999.90;;;999.90;;
20177;SDS011;10248;51.218;20.866;2022-08-19T01:54:07;1999.90;;;999.90;;
20177;SDS011;10248;51.218;20.866;2022-08-19T01:56:35;1999.90;;;999.90;;
20177;SDS011;10248;51.218;20.866;2022-08-19T01:59:05;1999.90;;;999.90;;
20177;SDS011;10248;51.218;20.866;2022-08-19T02:01:37;1999.90;;;999.90;;
20177;SDS011;10248;51.218;20.866;2022-08-19T02:04:05;1999.90;;;999.90;;
20177;SDS011;10248;51.218;20.866;2022-08-19T02:06:33;1999.90;;;999.90;;
20177;SDS011;10248;51.218;20.866;2022-08-19T02:09:04;1999.90;;;999.90;;
20177;SDS011;10248;51.218;20.866;2022-08-19T02:11:34;1999.90;;;999.90;;
20177;SDS011;10248;51.218;20.866;2022-08-19T02:14:04;1999.90;;;999.90;;
20177;SDS011;10248;51.218;20.866;2022-08-19T02:16:33;197.45;;;179.85;;
20177;SDS011;10248;51.218;20.866;2022-08-19T02:19:01;1999.90;;;999.90;;
20177;SDS011;10248;51.218;20.866;2022-08-19T02:21:29;1999.90;;;999.90;;
20177;SDS011;10248;51.218;20.866;2022-08-19T02:23:57;1999.90;;;999.90;;
20177;SDS011;10248;51.218;20.866;2022-08-19T02:26:25;1999.90;;;999.90;;
20177;SDS011;10248;51.218;20.866;2022-08-19T02:28:55;1999.90;;;999.90;;
20177;SDS011;10248;51.218;20.866;2022-08-19T02:31:25;1999.90;;;999.90;;
20177;SDS011;10248;51.218;20.866;2022-08-19T02:33:54;1999.90;;;999.90;;
20177;SDS011;10248;51.218;20.866;2022-08-19T02:36:22;1999.90;;;999.90;;
20177;SDS011;10248;51.218;20.866;2022-08-19T02:38:52;1999.90;;;999.90;;
20177;SDS011;10248;51.218;20.866;2022-08-19T02:41:22;1999.90;;;999.90;;
20177;SDS011;10248;51.218;20.866;2022-08-19T02:43:54;1999.90;;;999.90;;
20177;SDS011;10248;51.218;20.866;2022-08-19T02:46:45;1999.90;;;999.90;;
20177;SDS011;10248;51.218;20.866;2022-08-19T02:49:13;1999.90;;;999.90;;
20177;SDS011;10248;51.218;20.866;2022-08-19T02:51:43;1999.90;;;999.90;;
20177;SDS011;10248;51.218;20.866;2022-08-19T02:54:12;1999.90;;;999.90;;
20177;SDS011;10248;51.218;20.866;2022-08-19T02:56:40;1999.90;;;999.90;;
20177;SDS011;10248;51.218;20.866;2022-08-19T02:59:11;1999.90;;;999.90;;
20177;SDS011;10248;51.218;20.866;2022-08-19T03:01:39;1999.90;;;999.90;;
20177;SDS011;10248;51.218;20.866;2022-08-19T03:04:09;1999.90;;;999.90;;
20177;SDS011;10248;51.218;20.866;2022-08-19T03:06:38;1999.90;;;999.90;;
20177;SDS011;10248;51.218;20.866;2022-08-19T03:09:07;1999.90;;;999.90;;
20177;SDS011;10248;51.218;20.866;2022-08-19T03:11:35;1999.90;;;999.90;;
20177;SDS011;10248;51.218;20.866;2022-08-19T03:14:03;1999.90;;;999.90;;
20177;SDS011;10248;51.218;20.866;2022-08-19T03:16:35;1999.90;;;999.90;;
20177;SDS011;10248;51.218;20.866;2022-08-19T03:19:08;1999.90;;;999.90;;
20177;SDS011;10248;51.218;20.866;2022-08-19T03:21:36;1999.90;;;999.90;;
20177;SDS011;10248;51.218;20.866;2022-08-19T03:24:05;1999.90;;;999.90;;
20177;SDS011;10248;51.218;20.866;2022-08-19T03:26:37;1999.90;;;999.90;;
20177;SDS011;10248;51.218;20.866;2022-08-19T03:29:06;1999.90;;;999.90;;
20177;SDS011;10248;51.218;20.866;2022-08-19T03:31:38;1999.90;;;999.90;;
20177;SDS011;10248;51.218;20.866;2022-08-19T03:34:18;1999.90;;;999.90;;
20177;SDS011;10248;51.218;20.866;2022-08-19T03:36:48;1999.90;;;999.90;;
20177;SDS011;10248;51.218;20.866;2022-08-19T03:39:16;1999.90;;;999.90;;
20177;SDS011;10248;51.218;20.866;2022-08-19T03:41:45;1999.90;;;999.90;;
20177;SDS011;10248;51.218;20.866;2022-08-19T03:44:35;1999.90;;;999.90;;
20177;SDS011;10248;51.218;20.866;2022-08-19T03:47:05;1999.90;;;999.90;;
20177;SDS011;10248;51.218;20.866;2022-08-19T03:49:33;1999.90;;;999.90;;
20177;SDS011;10248;51.218;20.866;2022-08-19T03:52:02;1999.90;;;999.90;;
20177;SDS011;10248;51.218;20.866;2022-08-19T03:54:33;1999.90;;;999.90;;
20177;SDS011;10248;51.218;20.866;2022-08-19T03:57:02;1999.90;;;999.90;;
20177;SDS011;10248;51.218;20.866;2022-08-19T03:59:31;1999.90;;;999.90;;
20177;SDS011;10248;51.218;20.866;2022-08-19T04:02:01;1999.90;;;999.90;;
20177;SDS011;10248;51.218;20.866;2022-08-19T04:04:31;1999.90;;;999.90;;
20177;SDS011;10248;51.218;20.866;2022-08-19T04:06:59;1999.90;;;999.90;;
20177;SDS011;10248;51.218;20.866;2022-08-19T04:09:27;1999.90;;;999.90;;
20177;SDS011;10248;51.218;20.866;2022-08-19T04:11:55;1999.90;;;999.90;;
20177;SDS011;10248;51.218;20.866;2022-08-19T04:14:28;1999.90;;;999.90;;
20177;SDS011;10248;51.218;20.866;2022-08-19T04:16:57;1999.90;;;999.90;;
20177;SDS011;10248;51.218;20.866;2022-08-19T04:19:26;1999.90;;;999.90;;
20177;SDS011;10248;51.218;20.866;2022-08-19T04:21:56;1999.90;;;999.90;;
20177;SDS011;10248;51.218;20.866;2022-08-19T04:24:24;1999.90;;;999.90;;
20177;SDS011;10248;51.218;20.866;2022-08-19T04:26:52;1999.90;;;999.90;;
20177;SDS011;10248;51.218;20.866;2022-08-19T04:29:21;1999.90;;;999.90;;
20177;SDS011;10248;51.218;20.866;2022-08-19T04:31:51;1999.90;;;999.90;;
20177;SDS011;10248;51.218;20.866;2022-08-19T04:34:21;1999.90;;;999.90;;
20177;SDS011;10248;51.218;20.866;2022-08-19T04:36:50;1999.90;;;999.90;;
20177;SDS011;10248;51.218;20.866;2022-08-19T04:39:21;1999.90;;;999.90;;
20177;SDS011;10248;51.218;20.866;2022-08-19T04:42:10;1999.90;;;999.90;;
20177;SDS011;10248;51.218;20.866;2022-08-19T04:44:56;1999.90;;;999.90;;
20177;SDS011;10248;51.218;20.866;2022-08-19T04:47:25;1999.90;;;999.90;;
20177;SDS011;10248;51.218;20.866;2022-08-19T04:50:13;1999.90;;;999.90;;
20177;SDS011;10248;51.218;20.866;2022-08-19T04:52:41;1999.90;;;999.90;;
20177;SDS011;10248;51.218;20.866;2022-08-19T04:55:11;1999.90;;;999.90;;
20177;SDS011;10248;51.218;20.866;2022-08-19T04:57:40;1999.90;;;999.90;;
20177;SDS011;10248;51.218;20.866;2022-08-19T05:00:08;1999.90;;;999.90;;
20177;SDS011;10248;51.218;20.866;2022-08-19T05:02:37;1999.90;;;999.90;;
20177;SDS011;10248;51.218;20.866;2022-08-19T05:05:05;1999.90;;;999.90;;
20177;SDS011;10248;51.218;20.866;2022-08-19T05:07:34;1999.90;;;999.90;;
20177;SDS011;10248;51.218;20.866;2022-08-19T05:10:03;1999.90;;;999.90;;
20177;SDS011;10248;51.218;20.866;2022-08-19T05:12:34;1999.90;;;999.90;;
20177;SDS011;10248;51.218;20.866;2022-08-19T05:15:02;1999.90;;;999.90;;
20177;SDS011;10248;51.218;20.866;2022-08-19T05:17:31;1999.90;;;999.90;;
20177;SDS011;10248;51.218;20.866;2022-08-19T05:20:04;1999.90;;;999.90;;
20177;SDS011;10248;51.218;20.866;2022-08-19T05:22:51;1999.90;;;999.90;;
20177;SDS011;10248;51.218;20.866;2022-08-19T05:25:19;1999.90;;;999.90;;
20177;SDS011;10248;51.218;20.866;2022-08-19T05:27:49;1999.90;;;999.90;;
20177;SDS011;10248;51.218;20.866;2022-08-19T05:30:17;1999.90;;;999.90;;
20177;SDS011;10248;51.218;20.866;2022-08-19T05:33:05;1999.90;;;999.90;;
20177;SDS011;10248;51.218;20.866;2022-08-19T05:35:35;1999.90;;;999.90;;
20177;SDS011;10248;51.218;20.866;2022-08-19T05:38:03;1999.90;;;999.90;;
20177;SDS011;10248;51.218;20.866;2022-08-19T05:40:33;1999.90;;;999.90;;
20177;SDS011;10248;51.218;20.866;2022-08-19T05:43:04;1999.90;;;999.90;;
20177;SDS011;10248;51.218;20.866;2022-08-19T05:45:37;1999.90;;;999.90;;
20177;SDS011;10248;51.218;20.866;2022-08-19T05:48:06;1999.90;;;999.90;;
20177;SDS011;10248;51.218;20.866;2022-08-19T05:50:35;1999.90;;;999.90;;
20177;SDS011;10248;51.218;20.866;2022-08-19T05:53:03;1999.90;;;999.90;;
20177;SDS011;10248;51.218;20.866;2022-08-19T05:55:31;1999.90;;;999.90;;
20177;SDS011;10248;51.218;20.866;2022-08-19T05:57:58;1999.90;;;999.90;;
20177;SDS011;10248;51.218;20.866;2022-08-19T06:00:29;1999.90;;;999.90;;
20177;SDS011;10248;51.218;20.866;2022-08-19T06:02:57;1999.90;;;999.90;;
20177;SDS011;10248;51.218;20.866;2022-08-19T06:05:37;1999.90;;;999.90;;
20177;SDS011;10248;51.218;20.866;2022-08-19T06:08:17;1999.90;;;999.90;;
20177;SDS011;10248;51.218;20.866;2022-08-19T06:10:44;1999.90;;;999.90;;
20177;SDS011;10248;51.218;20.866;2022-08-19T06:13:12;1999.90;;;999.90;;
20177;SDS011;10248;51.218;20.866;2022-08-19T06:15:41;1999.90;;;999.90;;
20177;SDS011;10248;51.218;20.866;2022-08-19T06:18:12;1999.90;;;999.90;;
20177;SDS011;10248;51.218;20.866;2022-08-19T06:20:41;1999.90;;;999.90;;
20177;SDS011;10248;51.218;20.866;2022-08-19T06:23:21;1999.90;;;999.90;;
20177;SDS011;10248;51.218;20.866;2022-08-19T06:25:49;1999.90;;;999.90;;
20177;SDS011;10248;51.218;20.866;2022-08-19T06:28:17;1999.90;;;999.90;;
20177;SDS011;10248;51.218;20.866;2022-08-19T06:30:46;1999.90;;;999.90;;
20177;SDS011;10248;51.218;20.866;2022-08-19T06:33:15;1999.90;;;999.90;;
20177;SDS011;10248;51.218;20.866;2022-08-19T06:35:43;1999.90;;;999.90;;
20177;SDS011;10248;51.218;20.866;2022-08-19T06:38:11;1999.90;;;999.90;;
20177;SDS011;10248;51.218;20.866;2022-08-19T06:40:39;1999.90;;;999.90;;
20177;SDS011;10248;51.218;20.866;2022-08-19T06:43:12;1999.90;;;999.90;;
20177;SDS011;10248;51.218;20.866;2022-08-19T06:48:14;1999.90;;;999.90;;
20177;SDS011;10248;51.218;20.866;2022-08-19T06:50:43;1999.90;;;999.90;;
20177;SDS011;10248;51.218;20.866;2022-08-19T06:53:11;1999.90;;;999.90;;
20177;SDS011;10248;51.218;20.866;2022-08-19T06:55:40;1999.90;;;999.90;;
20177;SDS011;10248;51.218;20.866;2022-08-19T06:58:08;1999.90;;;999.90;;
20177;SDS011;10248;51.218;20.866;2022-08-19T07:00:36;1999.90;;;999.90;;
20177;SDS011;10248;51.218;20.866;2022-08-19T07:03:05;1999.90;;;999.90;;
20177;SDS011;10248;51.218;20.866;2022-08-19T07:05:39;1999.90;;;999.90;;
20177;SDS011;10248;51.218;20.866;2022-08-19T07:08:11;1999.90;;;999.90;;
20177;SDS011;10248;51.218;20.866;2022-08-19T07:10:42;1999.90;;;999.90;;
20177;SDS011;10248;51.218;20.866;2022-08-19T07:13:10;1999.90;;;999.90;;
20177;SDS011;10248;51.218;20.866;2022-08-19T07:15:38;1999.90;;;999.90;;
20177;SDS011;10248;51.218;20.866;2022-08-19T07:18:07;1999.90;;;999.90;;
20177;SDS011;10248;51.218;20.866;2022-08-19T07:20:38;1999.90;;;999.90;;
20177;SDS011;10248;51.218;20.866;2022-08-19T07:23:07;1999.90;;;999.90;;
20177;SDS011;10248;51.218;20.866;2022-08-19T07:25:41;1999.90;;;999.90;;
20177;SDS011;10248;51.218;20.866;2022-08-19T07:28:09;1999.90;;;999.90;;
20177;SDS011;10248;51.218;20.866;2022-08-19T07:30:50;1999.90;;;999.90;;
20177;SDS011;10248;51.218;20.866;2022-08-19T07:33:18;1999.90;;;999.90;;
20177;SDS011;10248;51.218;20.866;2022-08-19T07:35:47;1999.90;;;999.90;;
20177;SDS011;10248;51.218;20.866;2022-08-19T07:38:16;1999.90;;;999.90;;
20177;SDS011;10248;51.218;20.866;2022-08-19T07:40:44;1999.90;;;999.90;;
20177;SDS011;10248;51.218;20.866;2022-08-19T07:43:12;1999.90;;;999.90;;
20177;SDS011;10248;51.218;20.866;2022-08-19T07:45:43;1999.90;;;999.90;;
20177;SDS011;10248;51.218;20.866;2022-08-19T07:48:13;1999.90;;;999.90;;
20177;SDS011;10248;51.218;20.866;2022-08-19T07:50:41;1999.90;;;999.90;;
20177;SDS011;10248;51.218;20.866;2022-08-19T07:53:11;1999.90;;;999.90;;
20177;SDS011;10248;51.218;20.866;2022-08-19T07:55:43;1999.90;;;999.90;;
20177;SDS011;10248;51.218;20.866;2022-08-19T07:58:29;1999.90;;;999.90;;
20177;SDS011;10248;51.218;20.866;2022-08-19T08:00:58;1999.90;;;999.90;;
20177;SDS011;10248;51.218;20.866;2022-08-19T08:03:27;1999.90;;;999.90;;
20177;SDS011;10248;51.218;20.866;2022-08-19T08:06:09;1999.90;;;999.90;;
20177;SDS011;10248;51.218;20.866;2022-08-19T08:08:57;1999.90;;;999.90;;
20177;SDS011;10248;51.218;20.866;2022-08-19T08:11:44;1999.90;;;999.90;;
20177;SDS011;10248;51.218;20.866;2022-08-19T08:17:00;1999.90;;;999.90;;
20177;SDS011;10248;51.218;20.866;2022-08-19T08:19:36;1999.90;;;999.90;;
20177;SDS011;10248;51.218;20.866;2022-08-19T08:22:09;1999.90;;;999.90;;
20177;SDS011;10248;51.218;20.866;2022-08-19T08:25:02;1999.90;;;999.90;;
20177;SDS011;10248;51.218;20.866;2022-08-19T08:27:35;1999.90;;;999.90;;
20177;SDS011;10248;51.218;20.866;2022-08-19T08:30:06;1999.90;;;999.90;;
20177;SDS011;10248;51.218;20.866;2022-08-19T08:32:37;1999.90;;;999.90;;
20177;SDS011;10248;51.218;20.866;2022-08-19T08:35:07;1999.90;;;999.90;;
20177;SDS011;10248;51.218;20.866;2022-08-19T08:37:35;1999.90;;;999.90;;
20177;SDS011;10248;51.218;20.866;2022-08-19T08:40:06;1999.90;;;999.90;;
20177;SDS011;10248;51.218;20.866;2022-08-19T08:42:40;1999.90;;;999.90;;
20177;SDS011;10248;51.218;20.866;2022-08-19T08:45:13;1999.90;;;999.90;;
20177;SDS011;10248;51.218;20.866;2022-08-19T08:47:43;1999.90;;;999.90;;
20177;SDS011;10248;51.218;20.866;2022-08-19T08:50:15;774.00;;;409.88;;
20177;SDS011;10248;51.218;20.866;2022-08-19T08:52:46;1999.90;;;999.90;;
20177;SDS011;10248;51.218;20.866;2022-08-19T08:55:19;1999.90;;;999.90;;
20177;SDS011;10248;51.218;20.866;2022-08-19T08:57:51;1999.90;;;999.90;;
20177;SDS011;10248;51.218;20.866;2022-08-19T09:00:22;1999.90;;;999.90;;
20177;SDS011;10248;51.218;20.866;2022-08-19T09:02:52;1999.90;;;999.90;;
20177;SDS011;10248;51.218;20.866;2022-08-19T09:05:22;1999.90;;;999.90;;
20177;SDS011;10248;51.218;20.866;2022-08-19T09:07:53;1999.90;;;999.90;;
20177;SDS011;10248;51.218;20.866;2022-08-19T09:10:27;1999.90;;;999.90;;
20177;SDS011;10248;51.218;20.866;2022-08-19T09:13:00;1999.90;;;999.90;;
20177;SDS011;10248;51.218;20.866;2022-08-19T09:15:36;1999.90;;;999.90;;
20177;SDS011;10248;51.218;20.866;2022-08-19T09:18:06;1999.90;;;999.90;;
20177;SDS011;10248;51.218;20.866;2022-08-19T09:20:44;1999.90;;;999.90;;
20177;SDS011;10248;51.218;20.866;2022-08-19T09:23:13;1999.90;;;999.90;;
20177;SDS011;10248;51.218;20.866;2022-08-19T09:25:43;1999.90;;;999.90;;
20177;SDS011;10248;51.218;20.866;2022-08-19T09:28:10;1999.90;;;999.90;;
20177;SDS011;10248;51.218;20.866;2022-08-19T09:30:52;1999.90;;;999.90;;
20177;SDS011;10248;51.218;20.866;2022-08-19T09:33:20;1519.25;;;761.97;;
20177;SDS011;10248;51.218;20.866;2022-08-19T09:35:48;1999.90;;;999.90;;
20177;SDS011;10248;51.218;20.866;2022-08-19T09:38:19;1999.90;;;999.90;;
20177;SDS011;10248;51.218;20.866;2022-08-19T09:40:48;1999.90;;;999.90;;
20177;SDS011;10248;51.218;20.866;2022-08-19T09:43:16;1999.90;;;999.90;;
20177;SDS011;10248;51.218;20.866;2022-08-19T09:46:04;1999.90;;;999.90;;
20177;SDS011;10248;51.218;20.866;2022-08-19T09:48:35;1999.90;;;999.90;;
20177;SDS011;10248;51.218;20.866;2022-08-19T09:51:04;1999.90;;;999.90;;
20177;SDS011;10248;51.218;20.866;2022-08-19T09:53:37;1999.90;;;999.90;;
20177;SDS011;10248;51.218;20.866;2022-08-19T09:56:07;1999.90;;;999.90;;
20177;SDS011;10248;51.218;20.866;2022-08-19T09:58:36;1999.90;;;999.90;;
20177;SDS011;10248;51.218;20.866;2022-08-19T10:01:05;1999.90;;;999.90;;
20177;SDS011;10248;51.218;20.866;2022-08-19T10:03:34;1999.90;;;999.90;;
20177;SDS011;10248;51.218;20.866;2022-08-19T10:06:03;1999.90;;;999.90;;
20177;SDS011;10248;51.218;20.866;2022-08-19T10:08:40;1999.90;;;999.90;;
20177;SDS011;10248;51.218;20.866;2022-08-19T10:11:17;1999.90;;;999.90;;
20177;SDS011;10248;51.218;20.866;2022-08-19T10:13:53;1999.90;;;999.90;;
20177;SDS011;10248;51.218;20.866;2022-08-19T10:16:22;1999.90;;;999.90;;
20177;SDS011;10248;51.218;20.866;2022-08-19T10:18:55;1999.90;;;999.90;;
20177;SDS011;10248;51.218;20.866;2022-08-19T10:21:25;1999.90;;;999.90;;
20177;SDS011;10248;51.218;20.866;2022-08-19T10:23:58;1999.90;;;999.90;;
20177;SDS011;10248;51.218;20.866;2022-08-19T10:26:32;1999.90;;;999.90;;
20177;SDS011;10248;51.218;20.866;2022-08-19T10:29:02;1999.90;;;999.90;;
20177;SDS011;10248;51.218;20.866;2022-08-19T10:31:34;1999.90;;;999.90;;
20177;SDS011;10248;51.218;20.866;2022-08-19T10:34:22;1999.90;;;999.90;;
20177;SDS011;10248;51.218;20.866;2022-08-19T10:36:53;1999.90;;;999.90;;
20177;SDS011;10248;51.218;20.866;2022-08-19T10:39:27;1999.90;;;999.90;;
20177;SDS011;10248;51.218;20.866;2022-08-19T10:41:58;1999.90;;;999.90;;
20177;SDS011;10248;51.218;20.866;2022-08-19T10:44:26;1999.90;;;999.90;;
20177;SDS011;10248;51.218;20.866;2022-08-19T10:46:58;1999.90;;;999.90;;
20177;SDS011;10248;51.218;20.866;2022-08-19T10:49:26;1999.90;;;999.90;;
20177;SDS011;10248;51.218;20.866;2022-08-19T10:51:54;1999.90;;;999.90;;
20177;SDS011;10248;51.218;20.866;2022-08-19T10:57:35;1999.90;;;999.90;;
20177;SDS011;10248;51.218;20.866;2022-08-19T11:00:23;1999.90;;;999.90;;
20177;SDS011;10248;51.218;20.866;2022-08-19T11:02:53;1999.90;;;999.90;;
20177;SDS011;10248;51.218;20.866;2022-08-19T11:05:21;1999.90;;;999.90;;
20177;SDS011;10248;51.218;20.866;2022-08-19T11:07:49;1999.90;;;999.90;;
20177;SDS011;10248;51.218;20.866;2022-08-19T11:10:18;1999.90;;;999.90;;
20177;SDS011;10248;51.218;20.866;2022-08-19T11:12:49;1999.90;;;999.90;;
20177;SDS011;10248;51.218;20.866;2022-08-19T11:15:19;1999.90;;;999.90;;
20177;SDS011;10248;51.218;20.866;2022-08-19T11:17:47;1999.90;;;999.90;;
20177;SDS011;10248;51.218;20.866;2022-08-19T11:20:14;1999.90;;;999.90;;
20177;SDS011;10248;51.218;20.866;2022-08-19T11:22:44;1999.90;;;999.90;;
20177;SDS011;10248;51.218;20.866;2022-08-19T11:25:12;1999.90;;;999.90;;
20177;SDS011;10248;51.218;20.866;2022-08-19T11:27:41;1999.90;;;999.90;;
20177;SDS011;10248;51.218;20.866;2022-08-19T11:30:13;1999.90;;;999.90;;
20177;SDS011;10248;51.218;20.866;2022-08-19T11:32:41;1627.35;;;806.25;;
20177;SDS011;10248;51.218;20.866;2022-08-19T11:35:14;1999.90;;;999.90;;
20177;SDS011;10248;51.218;20.866;2022-08-19T11:37:43;1999.90;;;999.90;;
20177;SDS011;10248;51.218;20.866;2022-08-19T11:40:11;1999.90;;;999.90;;
20177;SDS011;10248;51.218;20.866;2022-08-19T11:42:39;1999.90;;;999.90;;
20177;SDS011;10248;51.218;20.866;2022-08-19T11:45:24;1999.90;;;999.90;;
20177;SDS011;10248;51.218;20.866;2022-08-19T11:47:53;1999.90;;;999.90;;
20177;SDS011;10248;51.218;20.866;2022-08-19T11:50:21;1999.90;;;999.90;;
20177;SDS011;10248;51.218;20.866;2022-08-19T11:52:53;1999.90;;;999.90;;
20177;SDS011;10248;51.218;20.866;2022-08-19T11:55:22;1999.90;;;999.90;;
20177;SDS011;10248;51.218;20.866;2022-08-19T11:57:53;1999.90;;;999.90;;
20177;SDS011;10248;51.218;20.866;2022-08-19T12:00:21;1999.90;;;999.90;;
20177;SDS011;10248;51.218;20.866;2022-08-19T12:02:52;1999.90;;;999.90;;
20177;SDS011;10248;51.218;20.866;2022-08-19T12:05:21;1999.90;;;999.90;;
20177;SDS011;10248;51.218;20.866;2022-08-19T12:07:48;1999.90;;;999.90;;
20177;SDS011;10248;51.218;20.866;2022-08-19T12:10:16;1999.90;;;999.90;;
20177;SDS011;10248;51.218;20.866;2022-08-19T12:12:51;1999.90;;;999.90;;
20177;SDS011;10248;51.218;20.866;2022-08-19T12:15:25;1999.90;;;999.90;;
20177;SDS011;10248;51.218;20.866;2022-08-19T12:18:03;1999.90;;;999.90;;
20177;SDS011;10248;51.218;20.866;2022-08-19T12:20:32;1999.90;;;999.90;;
20177;SDS011;10248;51.218;20.866;2022-08-19T12:23:02;1999.90;;;999.90;;
20177;SDS011;10248;51.218;20.866;2022-08-19T12:25:30;1999.90;;;999.90;;
20177;SDS011;10248;51.218;20.866;2022-08-19T12:27:59;1999.90;;;999.90;;
20177;SDS011;10248;51.218;20.866;2022-08-19T12:30:30;1999.90;;;999.90;;
20177;SDS011;10248;51.218;20.866;2022-08-19T12:32:58;1999.90;;;999.90;;
20177;SDS011;10248;51.218;20.866;2022-08-19T12:35:26;1999.90;;;999.90;;
20177;SDS011;10248;51.218;20.866;2022-08-19T12:37:55;1999.90;;;999.90;;
20177;SDS011;10248;51.218;20.866;2022-08-19T12:40:23;1999.90;;;999.90;;
20177;SDS011;10248;51.218;20.866;2022-08-19T12:42:52;1999.90;;;999.90;;
20177;SDS011;10248;51.218;20.866;2022-08-19T12:45:19;1999.90;;;999.90;;
20177;SDS011;10248;51.218;20.866;2022-08-19T12:47:50;1999.90;;;999.90;;
20177;SDS011;10248;51.218;20.866;2022-08-19T12:50:20;1999.90;;;999.90;;
20177;SDS011;10248;51.218;20.866;2022-08-19T12:52:49;1999.90;;;999.90;;
20177;SDS011;10248;51.218;20.866;2022-08-19T12:55:17;1999.90;;;999.90;;
20177;SDS011;10248;51.218;20.866;2022-08-19T12:57:45;1999.90;;;999.90;;
20177;SDS011;10248;51.218;20.866;2022-08-19T13:00:15;1999.90;;;999.90;;
20177;SDS011;10248;51.218;20.866;2022-08-19T13:02:45;1999.90;;;999.90;;
20177;SDS011;10248;51.218;20.866;2022-08-19T13:05:18;801.78;;;539.97;;
20177;SDS011;10248;51.218;20.866;2022-08-19T13:07:48;1999.90;;;999.90;;
20177;SDS011;10248;51.218;20.866;2022-08-19T13:10:18;1999.90;;;999.90;;
20177;SDS011;10248;51.218;20.866;2022-08-19T13:12:48;1999.90;;;999.90;;
20177;SDS011;10248;51.218;20.866;2022-08-19T13:15:18;1999.90;;;999.90;;
20177;SDS011;10248;51.218;20.866;2022-08-19T13:17:49;1999.90;;;999.90;;
20177;SDS011;10248;51.218;20.866;2022-08-19T13:20:21;1999.90;;;999.90;;
20177;SDS011;10248;51.218;20.866;2022-08-19T13:22:49;1999.90;;;999.90;;
20177;SDS011;10248;51.218;20.866;2022-08-19T13:25:18;1999.90;;;999.90;;
20177;SDS011;10248;51.218;20.866;2022-08-19T13:27:47;1999.90;;;999.90;;
20177;SDS011;10248;51.218;20.866;2022-08-19T13:30:16;1999.90;;;999.90;;
20177;SDS011;10248;51.218;20.866;2022-08-19T13:33:02;1999.90;;;999.90;;
20177;SDS011;10248;51.218;20.866;2022-08-19T13:35:44;1999.90;;;999.90;;
20177;SDS011;10248;51.218;20.866;2022-08-19T13:38:14;1999.90;;;999.90;;
20177;SDS011;10248;51.218;20.866;2022-08-19T13:40:43;1999.90;;;999.90;;
20177;SDS011;10248;51.218;20.866;2022-08-19T13:43:12;1999.90;;;999.90;;
20177;SDS011;10248;51.218;20.866;2022-08-19T13:45:49;1999.90;;;999.90;;
20177;SDS011;10248;51.218;20.866;2022-08-19T13:48:22;1999.90;;;999.90;;
20177;SDS011;10248;51.218;20.866;2022-08-19T13:50:52;1999.90;;;999.90;;
20177;SDS011;10248;51.218;20.866;2022-08-19T13:53:20;1999.90;;;999.90;;
20177;SDS011;10248;51.218;20.866;2022-08-19T13:55:48;1999.90;;;999.90;;
20177;SDS011;10248;51.218;20.866;2022-08-19T13:58:20;1999.90;;;999.90;;
20177;SDS011;10248;51.218;20.866;2022-08-19T14:00:49;1999.90;;;999.90;;
20177;SDS011;10248;51.218;20.866;2022-08-19T14:03:16;1999.90;;;999.90;;